Time;durP1;ratioP1;P1;durP2;ratioP2;P2;SDS_P1;SDS_P2;PMS_P1;PMS_P2;Temp;Humidity;BMP_temperature;BMP_pressure;BME280_temperature;BME280_humidity;BME280_pressure;Samples;Min_cycle;Max_cycle;Signal;HPM_P1;HPM_P2
2023/09/02 00:01:05;;;;;;;3.25;2.10;;;;;;;27.14;40.04;99963.22;4494781;31;33379;-65
2023/09/02 00:03:35;;;;;;;3.10;2.05;;;;;;;27.14;40.06;99962.37;4505235;31;34577;-63
2023/09/02 00:06:02;;;;;;;4.03;2.15;;;;;;;27.13;40.05;99966.19;4511602;31;34730;-61
2023/09/02 00:08:30;;;;;;;3.17;1.90;;;;;;;27.11;40.01;99966.47;4499723;31;34077;-61
2023/09/02 00:10:58;;;;;;;4.90;2.35;;;;;;;27.12;40.05;99959.91;4494601;32;32372;-64
2023/09/02 00:13:25;;;;;;;5.03;2.35;;;;;;;27.11;40.03;99962.87;4494036;31;33786;-62
2023/09/02 00:15:52;;;;;;;3.97;2.10;;;;;;;27.11;39.99;99960.97;4492297;31;33948;-62
2023/09/02 00:18:20;;;;;;;3.97;1.92;;;;;;;27.11;40.12;99968.38;4495679;31;33755;-60
2023/09/02 00:20:48;;;;;;;2.83;1.90;;;;;;;27.10;40.01;99962.06;4481317;32;32210;-63
2023/09/02 00:23:16;;;;;;;3.58;2.05;;;;;;;27.10;40.05;99963.97;4504932;31;34660;-61
2023/09/02 00:25:45;;;;;;;3.05;2.05;;;;;;;27.11;40.03;99960.16;4511765;31;34773;-62
2023/09/02 00:28:12;;;;;;;4.50;2.17;;;;;;;27.12;39.95;99959.06;4511102;31;34189;-67
2023/09/02 00:30:39;;;;;;;4.47;2.25;;;;;;;27.10;40.00;99962.06;4497236;31;33179;-63
2023/09/02 00:33:07;;;;;;;6.15;2.30;;;;;;;27.10;39.94;99967.53;4509907;31;33950;-62
2023/09/02 00:35:35;;;;;;;4.75;2.05;;;;;;;27.09;39.95;99963.16;4484086;31;32836;-65
2023/09/02 00:38:02;;;;;;;4.50;1.80;;;;;;;27.08;39.95;99961.47;4509906;31;33467;-61
2023/09/02 00:40:30;;;;;;;3.75;2.10;;;;;;;27.08;39.93;99947.78;4501324;31;34112;-61
2023/09/02 00:42:58;;;;;;;5.37;2.03;;;;;;;27.07;39.94;99954.28;4485588;31;33496;-65
2023/09/02 00:45:25;;;;;;;5.35;2.10;;;;;;;27.06;39.94;99949.91;4468536;31;33970;-61
2023/09/02 00:47:53;;;;;;;4.35;2.22;;;;;;;27.07;39.92;99948.00;4493688;32;33314;-61
2023/09/02 00:50:21;;;;;;;3.25;1.98;;;;;;;27.07;39.86;99942.50;4494877;31;34077;-63
2023/09/02 00:52:49;;;;;;;3.70;1.83;;;;;;;27.05;39.88;99950.16;4495520;32;33775;-63
2023/09/02 00:55:17;;;;;;;3.30;2.10;;;;;;;27.04;39.95;99952.03;4493718;31;34779;-61
2023/09/02 00:57:44;;;;;;;4.18;2.00;;;;;;;27.05;39.89;99951.00;4494104;31;33537;-61
2023/09/02 01:00:13;;;;;;;5.57;2.28;;;;;;;27.04;39.85;99957.53;4483776;31;33430;-61
2023/09/02 01:02:41;;;;;;;3.37;1.95;;;;;;;27.04;39.82;99959.44;4497024;31;33755;-63
2023/09/02 01:05:09;;;;;;;5.35;2.10;;;;;;;27.03;39.87;99961.34;4499305;31;33547;-63
2023/09/02 01:07:36;;;;;;;5.07;2.10;;;;;;;27.03;39.82;99960.50;4485874;31;34447;-62
2023/09/02 01:10:05;;;;;;;4.15;1.95;;;;;;;27.02;39.89;99961.59;4473331;31;32688;-61
2023/09/02 01:12:32;;;;;;;4.07;1.83;;;;;;;27.00;39.90;99961.84;4485947;31;33682;-62
2023/09/02 01:15:00;;;;;;;4.55;2.00;;;;;;;26.99;39.86;99965.66;4499562;31;33492;-61
2023/09/02 01:17:29;;;;;;;3.50;2.12;;;;;;;26.99;39.90;99962.91;4498744;31;32813;-62
2023/09/02 01:19:57;;;;;;;2.85;1.80;;;;;;;27.01;39.84;99976.38;4486303;31;34007;-69
2023/09/02 01:22:35;;;;;;;4.40;2.22;;;;;;;26.98;39.80;99974.94;4484578;31;33894;-64
2023/09/02 01:25:24;;;;;;;4.83;2.20;;;;;;;26.97;39.79;99978.78;4475254;31;34063;-62
2023/09/02 01:27:55;;;;;;;3.95;1.90;;;;;;;26.98;39.84;99972.22;4500521;31;33673;-61
2023/09/02 01:30:26;;;;;;;3.08;1.80;;;;;;;26.94;39.87;99971.03;4486322;31;31862;-63
2023/09/02 01:32:54;;;;;;;4.00;2.20;;;;;;;26.93;40.00;99967.47;4455222;32;34632;-65
2023/09/02 01:35:24;;;;;;;3.87;2.00;;;;;;;26.94;39.96;99965.56;4454844;32;33958;-66
2023/09/02 01:37:57;;;;;;;3.37;1.87;;;;;;;26.92;39.97;99959.50;4454909;32;33526;-61
2023/09/02 01:40:25;;;;;;;3.22;1.95;;;;;;;26.90;39.97;99957.00;4468234;31;32914;-65
2023/09/02 01:42:56;;;;;;;3.92;2.12;;;;;;;26.91;39.89;99961.41;4470313;32;33988;-62
2023/09/02 01:45:25;;;;;;;4.35;2.20;;;;;;;26.90;39.87;99964.38;4483288;32;34749;-61
2023/09/02 01:47:52;;;;;;;3.30;1.93;;;;;;;26.90;39.88;99967.12;4473386;31;33435;-65
2023/09/02 01:50:23;;;;;;;3.87;2.10;;;;;;;26.91;39.89;99960.59;4484583;31;34197;-62
2023/09/02 01:52:51;;;;;;;5.40;2.10;;;;;;;26.90;39.96;99965.22;4499069;31;33458;-62
2023/09/02 01:55:18;;;;;;;4.43;2.20;;;;;;;26.90;39.87;99969.84;4485721;31;34784;-63
2023/09/02 01:57:47;;;;;;;4.65;2.17;;;;;;;26.88;39.84;99967.38;4473441;31;34278;-62
2023/09/02 02:00:15;;;;;;;3.85;2.30;;;;;;;26.87;39.84;99965.72;4485883;31;33380;-62
2023/09/02 02:02:43;;;;;;;4.80;2.05;;;;;;;26.87;39.87;99965.72;4486129;31;33966;-64
2023/09/02 02:05:15;;;;;;;3.08;2.03;;;;;;;26.88;39.81;99964.63;4480150;32;35086;-64
2023/09/02 02:07:44;;;;;;;3.97;2.20;;;;;;;26.87;39.87;99956.69;4470150;32;33813;-62
2023/09/02 02:10:12;;;;;;;3.83;2.22;;;;;;;26.87;39.88;99959.41;4463959;32;33321;-62
2023/09/02 02:12:40;;;;;;;4.37;2.40;;;;;;;26.86;39.84;99968.69;4454746;32;33858;-61
2023/09/02 02:15:12;;;;;;;2.95;1.90;;;;;;;26.85;39.81;99965.13;4474209;31;33954;-62
2023/09/02 02:17:40;;;;;;;3.03;2.17;;;;;;;26.85;39.82;99967.03;4482946;32;33826;-62
2023/09/02 02:20:11;;;;;;;4.40;2.33;;;;;;;26.84;39.84;99968.94;4482887;32;33195;-62
2023/09/02 02:22:39;;;;;;;4.30;1.92;;;;;;;26.85;39.84;99967.84;4470556;32;34751;-62
2023/09/02 02:25:06;;;;;;;3.37;2.20;;;;;;;26.85;39.81;99972.50;4464563;32;33813;-64
2023/09/02 02:27:34;;;;;;;4.12;1.92;;;;;;;26.84;39.80;99965.38;4468794;32;33290;-62
2023/09/02 02:30:03;;;;;;;4.07;2.40;;;;;;;26.83;39.78;99964.56;4463221;31;33307;-62
2023/09/02 02:32:31;;;;;;;3.97;2.10;;;;;;;26.83;39.78;99969.19;4500059;31;33488;-66
2023/09/02 02:34:58;;;;;;;4.40;2.28;;;;;;;26.85;39.78;99970.59;4499728;31;33385;-62
2023/09/02 02:37:26;;;;;;;2.75;1.85;;;;;;;26.84;39.75;99970.84;4498858;31;33884;-63
2023/09/02 02:39:53;;;;;;;3.17;1.98;;;;;;;26.84;39.74;99968.13;4499594;31;34171;-61
2023/09/02 02:42:22;;;;;;;3.58;2.00;;;;;;;26.83;39.75;99967.28;4500176;31;33570;-62
2023/09/02 02:44:50;;;;;;;3.92;2.17;;;;;;;26.83;39.75;99970.03;4499701;31;34225;-68
2023/09/02 02:47:19;;;;;;;4.70;2.15;;;;;;;26.82;39.75;99962.91;4499943;31;33612;-62
2023/09/02 02:49:46;;;;;;;3.92;2.08;;;;;;;26.82;39.77;99965.63;4496755;31;33324;-63
2023/09/02 02:52:14;;;;;;;5.93;2.62;;;;;;;26.82;39.74;99964.81;4485966;31;34566;-62
2023/09/02 02:54:41;;;;;;;3.53;2.08;;;;;;;26.81;39.72;99969.41;4499883;31;34922;-61
2023/09/02 02:57:11;;;;;;;7.62;2.30;;;;;;;26.80;39.80;99965.03;4498779;31;34522;-64
2023/09/02 02:59:39;;;;;;;5.35;2.20;;;;;;;26.80;39.77;99969.69;4492725;31;32914;-62
2023/09/02 03:02:06;;;;;;;6.43;2.10;;;;;;;26.80;39.77;99964.19;4481365;31;33884;-63
2023/09/02 03:04:35;;;;;;;3.72;2.20;;;;;;;26.79;39.76;99968.84;4496855;31;34649;-62
2023/09/02 03:07:03;;;;;;;4.40;2.37;;;;;;;26.80;39.74;99966.94;4495768;31;33143;-62
2023/09/02 03:09:30;;;;;;;5.47;2.22;;;;;;;26.80;39.77;99964.19;4498256;31;33373;-62
2023/09/02 03:11:58;;;;;;;5.22;2.40;;;;;;;26.79;39.71;99960.63;4499637;31;34289;-63
2023/09/02 03:14:26;;;;;;;6.10;2.30;;;;;;;26.79;39.76;99960.63;4499561;31;34759;-62
2023/09/02 03:16:54;;;;;;;4.00;2.17;;;;;;;26.80;39.83;99970.50;4484051;31;33724;-61
2023/09/02 03:19:21;;;;;;;4.72;2.15;;;;;;;26.80;39.87;99972.41;4498275;31;33436;-62
2023/09/02 03:21:49;;;;;;;5.22;2.10;;;;;;;26.79;39.83;99974.31;4499172;31;34747;-61
2023/09/02 03:24:17;;;;;;;4.40;2.35;;;;;;;26.78;39.87;99972.66;4499888;31;33477;-62
2023/09/02 03:26:46;;;;;;;4.15;2.40;;;;;;;26.77;39.92;99981.97;4498598;31;33674;-62
2023/09/02 03:29:14;;;;;;;3.85;1.90;;;;;;;26.78;39.88;99971.84;4496670;31;34081;-61
2023/09/02 03:31:42;;;;;;;4.05;2.40;;;;;;;26.76;39.87;99974.81;4469723;32;34265;-61
2023/09/02 03:34:10;;;;;;;4.62;2.22;;;;;;;26.77;39.83;99971.00;4484008;32;33906;-62
2023/09/02 03:36:38;;;;;;;3.90;2.10;;;;;;;26.77;39.87;99979.22;4482219;32;32797;-63
2023/09/02 03:39:05;;;;;;;4.82;2.05;;;;;;;26.78;39.81;99971.84;4483622;32;34232;-61
2023/09/02 03:41:37;;;;;;;4.40;2.20;;;;;;;26.77;39.80;99970.19;4483952;32;33255;-65
2023/09/02 03:44:05;;;;;;;3.22;2.05;;;;;;;26.76;39.73;99963.03;4482187;32;34090;-62
2023/09/02 03:46:32;;;;;;;6.10;2.50;;;;;;;26.77;39.75;99967.44;4482283;32;34355;-61
2023/09/02 03:49:00;;;;;;;3.70;2.25;;;;;;;26.75;39.70;99975.88;4483396;32;33524;-68
2023/09/02 03:51:28;;;;;;;4.18;2.22;;;;;;;26.75;39.71;99964.09;4482024;32;33923;-61
2023/09/02 03:53:56;;;;;;;4.43;2.25;;;;;;;26.75;39.71;99969.59;4469413;32;33149;-61
2023/09/02 03:56:24;;;;;;;4.95;2.20;;;;;;;26.75;39.74;99969.59;4469270;32;33842;-62
2023/09/02 03:58:54;;;;;;;4.07;2.33;;;;;;;26.74;39.69;99962.44;4483493;31;32950;-64
2023/09/02 04:01:22;;;;;;;3.72;2.10;;;;;;;26.74;39.77;99970.66;4471571;31;33844;-63
2023/09/02 04:03:50;;;;;;;4.00;2.12;;;;;;;26.73;39.70;99967.09;4476142;31;34052;-63
2023/09/02 04:06:18;;;;;;;4.10;2.37;;;;;;;26.72;39.73;99970.91;4483031;31;33805;-61
2023/09/02 04:08:45;;;;;;;3.22;1.90;;;;;;;26.70;39.75;99971.13;4481717;32;34146;-61
2023/09/02 04:11:13;;;;;;;5.70;2.10;;;;;;;26.72;39.74;99973.66;4481754;32;33460;-60
2023/09/02 04:13:41;;;;;;;4.30;2.05;;;;;;;26.71;39.79;99980.19;4469064;32;33889;-61
2023/09/02 04:16:10;;;;;;;7.03;2.93;;;;;;;26.71;39.72;99982.91;4469012;32;33749;-63
2023/09/02 04:18:38;;;;;;;5.45;2.40;;;;;;;26.71;39.69;99981.00;4483110;32;34086;-60
2023/09/02 04:21:09;;;;;;;3.17;1.90;;;;;;;26.71;39.71;99991.13;4481980;32;34644;-61
2023/09/02 04:23:37;;;;;;;4.40;2.25;;;;;;;26.69;39.73;99985.91;4482977;32;34709;-62
2023/09/02 04:26:05;;;;;;;3.78;2.33;;;;;;;26.68;39.70;99983.44;4481607;32;34492;-60
2023/09/02 04:28:33;;;;;;;3.67;2.42;;;;;;;26.66;39.76;99980.91;4481683;32;33286;-61
2023/09/02 04:31:00;;;;;;;4.72;2.65;;;;;;;26.67;39.74;99992.69;4481510;32;34074;-60
2023/09/02 04:33:29;;;;;;;4.10;2.50;;;;;;;26.66;39.77;99993.78;4468940;32;32945;-64
2023/09/02 04:35:57;;;;;;;5.47;2.62;;;;;;;26.66;39.80;99997.34;4471206;32;33738;-63
2023/09/02 04:38:25;;;;;;;4.10;2.20;;;;;;;26.65;39.76;99992.13;4484223;32;33302;-60
2023/09/02 04:40:53;;;;;;;5.12;2.47;;;;;;;26.65;39.77;99998.41;4485075;32;33907;-63
2023/09/02 04:43:21;;;;;;;5.47;2.50;;;;;;;26.65;39.79;100001.16;4483747;32;33486;-61
2023/09/02 04:45:49;;;;;;;4.62;2.65;;;;;;;26.66;39.76;100001.97;4484982;32;33854;-61
2023/09/02 04:48:18;;;;;;;3.40;2.25;;;;;;;26.66;39.79;99996.50;4470757;32;31709;-61
2023/09/02 04:50:56;;;;;;;5.18;2.80;;;;;;;26.65;39.81;100003.06;4484866;32;33982;-63
2023/09/02 04:53:24;;;;;;;6.97;2.53;;;;;;;26.66;39.92;100001.97;4483490;32;33987;-62
2023/09/02 04:55:52;;;;;;;4.47;2.47;;;;;;;26.65;39.83;100003.06;4483845;32;33850;-61
2023/09/02 04:58:21;;;;;;;5.72;2.67;;;;;;;26.64;39.90;100007.72;4483883;32;33115;-62
2023/09/02 05:00:49;;;;;;;5.18;2.80;;;;;;;26.64;39.87;100001.41;4483711;32;33891;-61
2023/09/02 05:03:16;;;;;;;5.45;2.72;;;;;;;26.64;39.88;100004.97;4483667;32;34005;-62
2023/09/02 05:05:46;;;;;;;4.90;2.87;;;;;;;26.63;39.92;100005.22;4485081;32;34304;-61
2023/09/02 05:08:14;;;;;;;4.80;2.28;;;;;;;26.63;39.93;100008.78;4484961;32;33268;-63
2023/09/02 05:10:42;;;;;;;7.03;2.45;;;;;;;26.62;40.00;100004.38;4483484;32;33665;-61
2023/09/02 05:13:09;;;;;;;4.93;2.62;;;;;;;26.62;40.05;100012.56;4484898;32;34060;-63
2023/09/02 05:15:38;;;;;;;5.05;2.80;;;;;;;26.62;40.07;100009.00;4484884;32;34077;-62
2023/09/02 05:18:07;;;;;;;4.72;2.53;;;;;;;26.60;40.15;100003.78;4485137;32;33991;-61
2023/09/02 05:20:35;;;;;;;4.93;2.90;;;;;;;26.60;40.17;100002.97;4470725;32;33231;-67
2023/09/02 05:23:03;;;;;;;6.50;3.05;;;;;;;26.61;40.26;100004.62;4470429;32;33568;-61
2023/09/02 05:25:31;;;;;;;4.68;2.78;;;;;;;26.62;40.28;100006.28;4483381;32;34079;-62
2023/09/02 05:27:58;;;;;;;6.00;2.95;;;;;;;26.62;40.37;100009.00;4485116;32;33385;-61
2023/09/02 05:30:26;;;;;;;4.12;2.50;;;;;;;26.61;40.38;100010.91;4483321;32;33733;-61
2023/09/02 05:32:54;;;;;;;6.40;3.08;;;;;;;26.61;40.42;100013.66;4484606;32;33984;-61
2023/09/02 05:35:21;;;;;;;4.62;2.78;;;;;;;26.61;40.50;100018.31;4484678;32;33567;-61
2023/09/02 05:37:49;;;;;;;6.87;3.20;;;;;;;26.61;40.56;100019.13;4484637;32;32841;-61
2023/09/02 05:40:16;;;;;;;5.80;3.40;;;;;;;26.60;40.63;100019.38;4484530;32;33977;-61
2023/09/02 05:42:44;;;;;;;5.25;3.42;;;;;;;26.61;40.66;100007.34;4484528;32;34643;-61
2023/09/02 05:45:12;;;;;;;7.07;3.30;;;;;;;26.60;40.77;100009.25;4483591;32;33378;-62
2023/09/02 05:47:39;;;;;;;7.20;3.50;;;;;;;26.59;40.80;100004.88;4483118;32;32339;-62
2023/09/02 05:50:07;;;;;;;5.70;3.03;;;;;;;26.60;40.82;100019.38;4457319;32;33504;-61
2023/09/02 05:52:35;;;;;;;5.53;3.35;;;;;;;26.60;40.89;100019.38;4484401;32;34705;-61
2023/09/02 05:55:03;;;;;;;5.78;3.33;;;;;;;26.62;40.92;100011.75;4483166;32;33779;-62
2023/09/02 05:57:30;;;;;;;4.93;2.90;;;;;;;26.60;40.92;100008.44;4469939;32;32556;-62
2023/09/02 05:59:58;;;;;;;4.90;3.00;;;;;;;26.61;40.97;100010.91;4483243;32;33904;-62
2023/09/02 06:02:27;;;;;;;5.72;3.50;;;;;;;26.61;41.02;100010.91;4470005;32;33800;-65
2023/09/02 06:04:56;;;;;;;5.35;3.05;;;;;;;26.61;41.03;100010.91;4470315;32;33955;-63
2023/09/02 06:07:23;;;;;;;5.85;3.25;;;;;;;26.60;41.09;100014.75;4484523;32;33513;-64
2023/09/02 06:09:51;;;;;;;5.32;3.20;;;;;;;26.60;41.19;100016.66;4483081;32;33863;-61
2023/09/02 06:12:18;;;;;;;8.15;3.45;;;;;;;26.60;41.30;100019.38;4484217;32;33986;-64
2023/09/02 06:14:46;;;;;;;5.78;2.85;;;;;;;26.61;41.20;100021.88;4484360;32;33677;-61
2023/09/02 06:17:13;;;;;;;5.45;3.10;;;;;;;26.60;41.23;100012.00;4483111;32;32490;-62
2023/09/02 06:19:41;;;;;;;5.30;2.85;;;;;;;26.60;41.27;100017.47;4484103;32;34730;-61
2023/09/02 06:22:09;;;;;;;6.70;3.37;;;;;;;26.60;41.41;100017.47;4480427;32;33609;-71
2023/09/02 06:24:37;;;;;;;4.95;3.65;;;;;;;26.61;41.46;100026.50;4470103;32;32146;-67
2023/09/02 06:27:04;;;;;;;6.15;3.65;;;;;;;26.61;41.52;100024.59;4482985;32;34250;-71
2023/09/02 06:29:35;;;;;;;5.15;3.22;;;;;;;26.62;41.51;100034.47;4484157;32;34264;-66
2023/09/02 06:32:04;;;;;;;9.60;3.58;;;;;;;26.62;41.61;100034.47;4484014;32;33777;-71
2023/09/02 06:34:32;;;;;;;6.07;3.50;;;;;;;26.62;41.69;100036.38;4483627;32;34213;-68
2023/09/02 06:36:59;;;;;;;7.53;3.95;;;;;;;26.63;41.76;100041.63;4481883;32;33057;-64
2023/09/02 06:39:27;;;;;;;6.93;3.60;;;;;;;26.62;41.76;100034.47;4483764;32;33874;-70
2023/09/02 06:41:55;;;;;;;6.18;4.07;;;;;;;26.63;41.76;100036.16;4484040;32;33938;-66
2023/09/02 06:44:23;;;;;;;8.80;4.20;;;;;;;26.63;41.77;100041.63;4484301;32;33729;-65
2023/09/02 06:46:50;;;;;;;5.82;3.55;;;;;;;26.63;41.85;100038.91;4482696;32;33803;-63
2023/09/02 06:49:18;;;;;;;5.95;3.62;;;;;;;26.63;41.92;100041.63;4469983;32;33903;-69
2023/09/02 06:51:46;;;;;;;5.78;3.55;;;;;;;26.63;41.96;100043.53;4483984;32;33994;-65
2023/09/02 06:54:13;;;;;;;11.07;3.53;;;;;;;26.64;42.02;100045.19;4482745;32;33636;-68
2023/09/02 06:56:41;;;;;;;7.28;3.45;;;;;;;26.64;42.06;100048.75;4465892;32;34043;-67
2023/09/02 06:59:09;;;;;;;5.28;3.70;;;;;;;26.66;42.08;100046.59;4468365;32;33809;-66
2023/09/02 07:01:36;;;;;;;7.72;3.55;;;;;;;26.67;42.15;100048.28;4468289;32;34771;-63
2023/09/02 07:04:23;;;;;;;6.00;3.60;;;;;;;26.68;42.11;100041.72;4481018;32;33539;-62
2023/09/02 07:06:50;;;;;;;5.55;3.45;;;;;;;26.71;42.18;100043.13;4472688;32;32952;-67
2023/09/02 07:09:18;;;;;;;12.37;3.92;;;;;;;26.70;42.23;100053.25;4482548;32;33550;-66
2023/09/02 07:11:45;;;;;;;11.45;3.90;;;;;;;26.70;42.35;100047.78;4469579;32;32913;-61
2023/09/02 07:14:13;;;;;;;13.43;4.12;;;;;;;26.73;42.42;100045.66;4484052;32;33715;-65
2023/09/02 07:16:41;;;;;;;12.93;3.90;;;;;;;26.73;42.42;100051.13;4469929;32;34397;-61
2023/09/02 07:19:08;;;;;;;13.98;3.75;;;;;;;26.72;42.27;100044.81;4483879;32;34654;-63
2023/09/02 07:21:36;;;;;;;9.98;3.83;;;;;;;26.73;42.29;100051.13;4482527;32;33945;-61
2023/09/02 07:24:04;;;;;;;11.75;4.30;;;;;;;26.73;42.38;100054.69;4483550;32;34513;-61
2023/09/02 07:26:32;;;;;;;10.15;3.87;;;;;;;26.73;42.42;100056.59;4483784;32;34128;-69
2023/09/02 07:28:59;;;;;;;10.98;4.60;;;;;;;26.73;42.49;100051.13;4483767;32;33759;-61
2023/09/02 07:31:27;;;;;;;14.23;4.37;;;;;;;26.76;43.16;100051.44;4483579;32;33705;-62
2023/09/02 07:33:55;;;;;;;10.07;4.00;;;;;;;26.88;43.27;100054.16;4483716;32;33723;-63
2023/09/02 07:36:22;;;;;;;9.85;3.47;;;;;;;26.90;43.17;100052.00;4482317;32;33713;-62
2023/09/02 07:38:50;;;;;;;9.18;3.67;;;;;;;26.90;42.97;100052.00;4456614;32;33611;-67
2023/09/02 07:41:18;;;;;;;10.30;3.53;;;;;;;26.90;42.88;100047.34;4483570;32;34028;-69
2023/09/02 07:43:45;;;;;;;11.15;3.67;;;;;;;26.98;43.21;100048.06;4482302;32;32612;-68
2023/09/02 07:46:13;;;;;;;8.45;3.60;;;;;;;26.97;43.20;100058.19;4446244;32;31979;-68
2023/09/02 07:48:40;;;;;;;10.43;3.78;;;;;;;26.99;43.17;100055.19;4453657;32;34673;-71
2023/09/02 07:51:08;;;;;;;9.80;3.62;;;;;;;27.01;43.14;100062.09;4453409;32;34655;-64
2023/09/02 07:53:36;;;;;;;13.25;3.97;;;;;;;27.01;43.08;100064.00;4467703;32;33568;-67
2023/09/02 07:56:03;;;;;;;10.38;3.58;;;;;;;27.02;43.11;100065.66;4467718;32;33121;-67
2023/09/02 07:58:31;;;;;;;7.75;3.22;;;;;;;27.02;43.04;100065.66;4462361;32;33426;-69
2023/09/02 08:00:59;;;;;;;7.60;3.37;;;;;;;27.05;43.01;100062.44;4453774;32;33958;-70
2023/09/02 08:03:27;;;;;;;6.78;3.03;;;;;;;27.04;42.87;100067.06;4479232;32;34580;-66
2023/09/02 08:05:54;;;;;;;9.63;3.30;;;;;;;27.04;42.89;100064.31;4466184;32;34158;-69
2023/09/02 08:08:22;;;;;;;7.78;3.50;;;;;;;27.04;42.90;100056.12;4466420;32;33430;-68
2023/09/02 08:11:00;;;;;;;9.82;3.17;;;;;;;27.05;42.86;100062.44;4481027;32;35207;-67
2023/09/02 08:13:28;;;;;;;12.52;3.20;;;;;;;27.07;42.78;100066.59;4468015;32;32845;-63
2023/09/02 08:15:55;;;;;;;7.68;2.95;;;;;;;27.06;42.72;100067.66;4469376;32;33517;-71
2023/09/02 08:18:23;;;;;;;6.30;2.83;;;;;;;27.06;42.73;100069.59;4469573;32;33974;-66
2023/09/02 08:20:50;;;;;;;5.75;2.97;;;;;;;27.06;42.68;100062.19;4469174;32;33960;-67
2023/09/02 08:23:18;;;;;;;10.20;3.28;;;;;;;27.06;42.72;100062.19;4455251;32;32347;-66
2023/09/02 08:25:46;;;;;;;12.37;3.08;;;;;;;27.06;42.77;100070.41;4469481;32;32970;-66
2023/09/02 08:28:14;;;;;;;8.05;3.12;;;;;;;27.05;42.86;100068.75;4481120;32;33016;-64
2023/09/02 08:30:43;;;;;;;8.82;3.60;;;;;;;27.06;42.96;100070.41;4480911;32;33825;-64
2023/09/02 08:33:10;;;;;;;8.53;3.33;;;;;;;27.08;43.07;100067.41;4469365;32;35028;-64
2023/09/02 08:35:38;;;;;;;8.18;3.40;;;;;;;27.09;43.05;100072.69;4481201;32;33344;-64
2023/09/02 08:38:06;;;;;;;10.80;3.72;;;;;;;27.10;43.17;100070.78;4469381;32;33628;-64
2023/09/02 08:40:33;;;;;;;6.97;3.30;;;;;;;27.12;43.21;100074.94;4469263;32;34155;-66
2023/09/02 08:43:02;;;;;;;10.48;4.50;;;;;;;27.11;43.14;100076.03;4455075;32;34508;-65
2023/09/02 08:45:29;;;;;;;12.60;5.18;;;;;;;27.12;43.20;100076.84;4482456;32;33194;-63
2023/09/02 08:48:00;;;;;;;13.10;4.28;;;;;;;27.11;43.24;100066.97;4456272;32;33487;-64
2023/09/02 08:50:28;;;;;;;7.40;3.40;;;;;;;27.12;43.23;100071.37;4467915;32;33910;-63
2023/09/02 08:52:56;;;;;;;12.65;4.00;;;;;;;27.11;43.21;100075.19;4454988;32;32738;-63
2023/09/02 08:55:23;;;;;;;12.13;4.10;;;;;;;27.10;43.21;100082.56;4467756;32;33269;-64
2023/09/02 08:57:51;;;;;;;8.38;3.80;;;;;;;27.11;43.34;100077.94;4459683;32;32293;-65
2023/09/02 09:00:19;;;;;;;8.88;3.50;;;;;;;27.11;43.36;100081.50;4467982;32;33690;-63
2023/09/02 09:02:46;;;;;;;7.55;3.67;;;;;;;27.12;43.47;100074.94;4467708;32;33895;-63
2023/09/02 09:05:14;;;;;;;8.48;3.87;;;;;;;27.14;43.51;100081.00;4454877;32;33403;-64
2023/09/02 09:07:42;;;;;;;9.73;3.70;;;;;;;27.13;43.46;100082.06;4467756;32;33693;-64
2023/09/02 09:10:13;;;;;;;11.10;3.83;;;;;;;27.14;43.46;100077.41;4467328;32;35398;-65
2023/09/02 09:12:41;;;;;;;8.65;3.30;;;;;;;27.13;43.57;100078.50;4467581;32;33049;-62
2023/09/02 09:15:09;;;;;;;8.93;3.87;;;;;;;27.15;43.65;100079.94;4467852;32;34366;-62
2023/09/02 09:17:36;;;;;;;7.97;3.30;;;;;;;27.14;43.61;100072.81;4453404;32;32923;-64
2023/09/02 09:20:04;;;;;;;7.15;3.40;;;;;;;27.15;43.73;100077.19;4467077;32;34003;-63
2023/09/02 09:22:38;;;;;;;7.28;3.50;;;;;;;27.15;43.64;100076.38;4465899;32;33629;-62
2023/09/02 09:25:06;;;;;;;8.13;3.15;;;;;;;27.17;43.67;100075.03;4439843;32;32247;-62
2023/09/02 09:27:38;;;;;;;8.68;3.50;;;;;;;27.16;43.77;100078.84;4453383;32;32976;-63
2023/09/02 09:30:05;;;;;;;6.22;3.35;;;;;;;27.17;43.71;100079.69;4466235;32;35137;-65
2023/09/02 09:32:33;;;;;;;9.15;3.35;;;;;;;27.17;43.73;100088.72;4467918;32;33692;-62
2023/09/02 09:35:01;;;;;;;9.30;2.97;;;;;;;27.16;43.75;100073.38;4466829;32;33267;-62
2023/09/02 09:37:31;;;;;;;6.32;2.75;;;;;;;27.17;43.76;100076.94;4466796;32;32455;-62
2023/09/02 09:39:58;;;;;;;;;;;;;;;27.18;43.83;100075.84;4477279;32;33585;-63
2023/09/02 09:42:35;;;;;;;7.45;3.15;;;;;;;27.29;43.64;100082.38;4483197;32;34047;-63
2023/09/02 09:45:04;;;;;;;6.75;3.00;;;;;;;27.24;43.94;100079.56;4457277;32;32283;-63
2023/09/02 09:47:32;;;;;;;8.02;3.22;;;;;;;27.23;43.98;100077.84;4470055;32;34678;-65
2023/09/02 09:50:13;;;;;;;4.82;3.03;;;;;;;27.26;43.99;100074.63;4484392;32;33701;-62
2023/09/02 09:52:57;;;;;;;6.03;3.10;;;;;;;27.28;43.95;100075.22;4483140;32;33501;-63
2023/09/02 09:55:25;;;;;;;7.20;2.55;;;;;;;27.29;43.98;100085.13;4483130;32;33278;-63
2023/09/02 09:57:54;;;;;;;6.47;3.08;;;;;;;27.28;43.84;100069.72;4483236;32;34603;-63
2023/09/02 10:00:21;;;;;;;6.97;3.05;;;;;;;27.30;43.69;100075.81;4484650;32;34042;-69
2023/09/02 10:02:53;;;;;;;7.28;3.42;;;;;;;27.28;43.69;100087.03;4484093;32;33865;-63
2023/09/02 10:05:31;;;;;;;7.75;2.80;;;;;;;27.27;43.74;100074.37;4470493;32;33312;-65
2023/09/02 10:08:06;;;;;;;5.72;2.40;;;;;;;27.28;43.85;100075.22;4484503;32;33933;-62
2023/09/02 10:10:35;;;;;;;7.18;3.05;;;;;;;27.28;43.94;100080.69;4483081;32;33786;-62
2023/09/02 10:13:03;;;;;;;5.50;3.03;;;;;;;27.27;43.96;100079.88;4457200;32;32715;-63
2023/09/02 10:15:31;;;;;;;10.02;2.70;;;;;;;27.30;44.05;100078.56;4484125;32;33802;-63
2023/09/02 10:17:59;;;;;;;9.68;3.33;;;;;;;27.31;44.11;100074.72;4470240;32;33123;-64
2023/09/02 10:20:28;;;;;;;7.90;3.00;;;;;;;27.34;44.11;100077.81;4483061;32;34647;-66
2023/09/02 10:23:09;;;;;;;6.57;3.03;;;;;;;27.35;44.05;100076.72;4483165;32;33746;-63
2023/09/02 10:25:52;;;;;;;6.97;3.20;;;;;;;27.38;43.94;100078.16;4470344;32;32569;-64
2023/09/02 10:28:53;;;;;;;7.55;3.45;;;;;;;27.36;43.96;100067.44;4483145;32;34314;-69
2023/09/02 10:31:22;;;;;;;5.18;3.03;;;;;;;27.39;44.01;100066.94;4456161;32;33873;-63
2023/09/02 10:34:02;;;;;;;5.68;2.60;;;;;;;27.37;44.16;100066.38;4470063;32;33310;-63
2023/09/02 10:36:31;;;;;;;6.12;3.50;;;;;;;27.39;44.14;100072.44;4482703;32;33311;-67
2023/09/02 10:39:01;;;;;;;6.33;3.63;;;;;;;27.40;44.14;100065.03;4483007;32;33861;-67
2023/09/02 10:41:29;;;;;;;6.75;2.75;;;;;;;27.41;44.09;100064.78;4482923;32;33975;-65
2023/09/02 10:43:57;;;;;;;5.35;2.95;;;;;;;27.42;43.79;100065.62;4482826;32;34288;-67
2023/09/02 10:46:24;;;;;;;6.43;3.40;;;;;;;27.41;43.50;100070.25;4482961;32;33060;-64
2023/09/02 10:48:52;;;;;;;38.08;15.25;;;;;;;27.43;43.26;100064.56;4482745;32;33883;-64
2023/09/02 10:51:20;;;;;;;39.95;15.27;;;;;;;27.45;43.40;100067.87;4482849;32;34117;-64
2023/09/02 10:53:50;;;;;;;39.35;16.00;;;;;;;27.43;43.48;100067.28;4482848;32;34458;-63
2023/09/02 10:56:24;;;;;;;43.53;17.08;;;;;;;27.41;43.62;100058.47;4484055;32;33225;-63
2023/09/02 10:58:52;;;;;;;37.15;14.15;;;;;;;27.42;43.52;100057.41;4482740;32;33470;-66
2023/09/02 11:01:20;;;;;;;34.65;13.70;;;;;;;27.48;43.51;100063.81;4482959;32;34680;-65
2023/09/02 11:03:49;;;;;;;20.73;8.07;;;;;;;27.47;43.66;100060.25;4466831;32;33809;-63
2023/09/02 11:06:17;;;;;;;23.58;8.90;;;;;;;27.51;43.39;100069.59;4467241;32;33416;-62
2023/09/02 11:08:46;;;;;;;21.48;7.90;;;;;;;27.55;43.13;100067.22;4467122;32;33926;-64
2023/09/02 11:11:18;;;;;;;36.42;12.45;;;;;;;27.57;43.05;100068.63;4467251;32;33897;-64
2023/09/02 11:14:07;;;;;;;40.60;13.60;;;;;;;27.59;43.20;100069.22;4466926;32;33643;-64
2023/09/02 11:16:35;;;;;;;;;;;;;;;27.60;43.30;100068.13;4468450;32;33313;-62
2023/09/02 11:19:08;;;;;;;37.78;13.25;;;;;;;27.70;43.14;100067.50;4467145;32;33967;-66
2023/09/02 11:21:41;;;;;;;38.88;12.75;;;;;;;27.61;43.31;100068.97;4466674;32;33971;-66
2023/09/02 11:24:18;;;;;;;36.00;13.18;;;;;;;27.57;43.42;100071.37;4468019;32;33673;-64
2023/09/02 11:27:04;;;;;;;34.55;13.70;;;;;;;27.58;43.43;100075.78;4468101;32;33618;-72
2023/09/02 11:29:32;;;;;;;35.47;13.02;;;;;;;27.58;43.42;100075.78;4474814;32;34309;-68
2023/09/02 11:32:02;;;;;;;35.47;13.07;;;;;;;27.58;43.45;100072.22;4482289;32;34095;-68
2023/09/02 11:34:30;;;;;;;40.42;13.32;;;;;;;27.57;43.47;100079.59;4483407;32;34584;-67